createdAt,value
2022-08-06T00:00:08.190Z,2.17
2022-08-06T00:02:36.680Z,3.92
2022-08-06T00:05:06.712Z,10.13
2022-08-06T00:07:45.203Z,4.25
2022-08-06T00:10:17.256Z,4.15
2022-08-06T00:12:46.099Z,7.20
2022-08-06T00:15:20.048Z,6.88
2022-08-06T00:18:06.440Z,3.00
2022-08-06T00:20:34.449Z,3.88
2022-08-06T00:23:16.437Z,6.25
2022-08-06T00:25:52.399Z,4.88
2022-08-06T00:28:30.814Z,3.60
2022-08-06T00:31:11.541Z,4.60
2022-08-06T00:33:44.402Z,10.23
2022-08-06T00:36:30.431Z,5.50
2022-08-06T00:39:06.236Z,5.95
2022-08-06T00:41:42.205Z,12.52
2022-08-06T00:44:14.389Z,2.25
2022-08-06T00:46:42.947Z,6.97
2022-08-06T00:49:12.049Z,5.53
2022-08-06T00:51:50.236Z,5.80
2022-08-06T00:54:28.977Z,3.55
2022-08-06T00:57:11.997Z,3.35
2022-08-06T00:59:39.707Z,2.77
2022-08-06T01:02:09.587Z,2.88
2022-08-06T01:04:38.174Z,2.88
2022-08-06T01:07:05.616Z,4.50
2022-08-06T01:09:46.165Z,1.77
2022-08-06T01:12:31.769Z,5.05
2022-08-06T01:15:02.827Z,2.20
2022-08-06T01:17:39.133Z,2.70
2022-08-06T01:22:01.500Z,7.95
2022-08-06T01:24:04.981Z,9.20
2022-08-06T01:27:03.129Z,22.65
2022-08-06T01:29:40.251Z,2.25
2022-08-06T01:32:16.159Z,2.33
2022-08-06T01:34:56.150Z,1.88
2022-08-06T01:37:49.673Z,8.07
2022-08-06T01:40:23.905Z,2.75
2022-08-06T01:42:56.066Z,2.53
2022-08-06T01:45:32.672Z,2.53
2022-08-06T01:48:28.880Z,4.68
2022-08-06T01:50:59.267Z,1.83
2022-08-06T01:54:06.008Z,2.30
2022-08-06T01:56:25.943Z,2.00
2022-08-06T01:59:01.448Z,2.65
2022-08-06T02:01:41.004Z,2.22
2022-08-06T02:04:25.299Z,2.10
2022-08-06T02:06:56.909Z,2.50
2022-08-06T02:09:27.755Z,2.20
2022-08-06T02:12:06.675Z,2.25
2022-08-06T02:14:49.988Z,2.80
2022-08-06T02:17:53.893Z,3.05
2022-08-06T02:20:18.497Z,2.33
2022-08-06T02:22:47.428Z,2.03
2022-08-06T02:25:21.619Z,2.00
2022-08-06T02:27:59.164Z,2.20
2022-08-06T02:30:34.828Z,2.33
2022-08-06T02:33:08.258Z,2.60
2022-08-06T02:35:42.018Z,1.83
2022-08-06T02:38:29.607Z,2.13
2022-08-06T02:41:18.097Z,1.85
2022-08-06T02:43:52.272Z,1.80
2022-08-06T02:46:35.328Z,2.13
2022-08-06T02:49:25.567Z,2.15
2022-08-06T02:52:11.533Z,2.50
2022-08-06T02:55:07.460Z,2.33
2022-08-06T02:57:50.666Z,2.25
2022-08-06T03:00:19.707Z,2.28
2022-08-06T03:02:49.836Z,2.30
2022-08-06T03:05:55.948Z,2.47
2022-08-06T03:08:11.482Z,2.42
2022-08-06T03:10:41.659Z,2.33
2022-08-06T03:13:10.901Z,2.50
2022-08-06T03:16:00.004Z,2.33
2022-08-06T03:18:28.586Z,3.08
2022-08-06T03:20:57.587Z,3.00
2022-08-06T03:23:26.897Z,2.50
2022-08-06T03:25:55.557Z,3.05
2022-08-06T03:28:25.401Z,3.08
2022-08-06T03:30:55.755Z,2.35
2022-08-06T03:33:29.363Z,3.40
2022-08-06T03:36:11.909Z,2.60
2022-08-06T03:38:54.514Z,3.28
2022-08-06T03:41:29.359Z,3.00
2022-08-06T03:44:07.499Z,2.90
2022-08-06T03:46:41.441Z,2.80
2022-08-06T03:49:26.094Z,2.92
2022-08-06T03:51:55.858Z,3.60
2022-08-06T03:54:32.143Z,2.63
2022-08-06T03:57:09.881Z,3.03
2022-08-06T03:59:43.613Z,3.00
2022-08-06T04:02:45.040Z,2.88
2022-08-06T04:05:20.960Z,2.90
2022-08-06T04:07:57.266Z,3.13
2022-08-06T04:10:33.651Z,3.05
2022-08-06T04:13:41.081Z,3.17
2022-08-06T04:15:56.984Z,2.83
2022-08-06T04:18:28.459Z,3.08
2022-08-06T04:21:19.690Z,2.85
2022-08-06T04:26:18.847Z,2.60
2022-08-06T04:28:57.335Z,3.20
2022-08-06T04:32:03.108Z,3.03
2022-08-06T04:34:26.834Z,2.92
2022-08-06T04:36:55.973Z,2.95
2022-08-06T04:39:25.333Z,3.13
2022-08-06T04:42:00.442Z,2.80
2022-08-06T04:44:29.187Z,3.05
2022-08-06T04:46:58.245Z,2.65
2022-08-06T04:49:57.475Z,2.63
2022-08-06T04:52:36.602Z,2.60
2022-08-06T04:55:24.850Z,2.50
2022-08-06T04:58:08.169Z,2.80
2022-08-06T05:01:03.382Z,2.42
2022-08-06T05:04:07.940Z,2.70
2022-08-06T05:06:34.908Z,2.50
2022-08-06T05:09:23.457Z,2.63
2022-08-06T05:12:07.642Z,2.20
2022-08-06T05:14:47.294Z,2.53
2022-08-06T05:17:17.046Z,2.65
2022-08-06T05:19:47.849Z,2.33
2022-08-06T05:22:19.622Z,2.63
2022-08-06T05:25:11.979Z,2.38
2022-08-06T05:28:04.020Z,2.33
2022-08-06T05:30:31.389Z,2.38
2022-08-06T05:32:59.447Z,2.08
2022-08-06T05:35:40.587Z,2.30
2022-08-06T05:38:11.058Z,2.33
2022-08-06T05:40:53.450Z,1.92
2022-08-06T05:43:25.687Z,1.70
2022-08-06T05:45:59.056Z,1.92
2022-08-06T05:48:29.976Z,1.65
2022-08-06T05:51:00.563Z,2.00
2022-08-06T05:54:03.079Z,1.77
2022-08-06T05:56:39.257Z,1.75
2022-08-06T05:59:37.363Z,1.60
2022-08-06T06:02:10.308Z,1.50
2022-08-06T06:04:39.015Z,1.70
2022-08-06T06:08:07.920Z,1.80
2022-08-06T06:10:04.929Z,1.80
2022-08-06T06:12:33.790Z,1.77
2022-08-06T06:15:59.484Z,1.70
2022-08-06T06:21:17.955Z,1.35
2022-08-06T06:23:55.186Z,1.58
2022-08-06T06:27:01.701Z,1.27
2022-08-06T06:30:05.925Z,1.25
2022-08-06T06:32:47.793Z,1.50
2022-08-06T06:35:38.620Z,1.30
2022-08-06T06:38:24.784Z,1.65
2022-08-06T06:41:20.902Z,1.65
2022-08-06T06:43:54.385Z,2.03
2022-08-06T06:46:36.297Z,1.20
2022-08-06T06:50:00.165Z,1.42
2022-08-06T06:52:23.627Z,1.63
2022-08-06T06:55:18.886Z,1.30
2022-08-06T06:57:52.849Z,1.30
2022-08-06T07:00:45.378Z,1.58
2022-08-06T07:03:09.597Z,1.30
2022-08-06T07:06:09.703Z,1.20
2022-08-06T07:08:37.592Z,1.10
2022-08-06T07:13:47.441Z,1.20
2022-08-06T07:16:36.050Z,1.20
2022-08-06T07:19:10.628Z,1.00
2022-08-06T07:21:47.665Z,1.25
2022-08-06T07:24:38.343Z,1.05
2022-08-06T07:27:07.742Z,0.80
2022-08-06T07:29:49.610Z,0.88
2022-08-06T07:32:31.603Z,0.80
2022-08-06T07:35:13.155Z,0.80
2022-08-06T07:37:51.851Z,0.70
2022-08-06T07:40:28.612Z,0.60
2022-08-06T07:43:11.520Z,1.00
2022-08-06T07:45:55.429Z,0.60
2022-08-06T07:48:28.913Z,0.60
2022-08-06T07:51:01.707Z,1.85
2022-08-06T07:53:52.305Z,0.60
2022-08-06T07:56:26.061Z,3.85
2022-08-06T07:58:57.417Z,4.65
2022-08-06T08:01:28.441Z,9.52
2022-08-06T08:04:34.356Z,4.80
2022-08-06T08:07:07.709Z,1.77
2022-08-06T08:10:02.295Z,2.38
2022-08-06T08:12:35.433Z,10.30
2022-08-06T08:15:19.208Z,8.80
2022-08-06T08:17:57.231Z,3.97
2022-08-06T08:20:34.592Z,5.43
2022-08-06T08:23:07.750Z,2.15
2022-08-06T08:25:43.198Z,0.40
2022-08-06T08:28:16.947Z,0.85
2022-08-06T08:30:46.965Z,2.75
2022-08-06T08:33:21.567Z,2.72
2022-08-06T08:35:50.403Z,2.95
2022-08-06T08:38:32.344Z,1.55
2022-08-06T08:41:07.619Z,1.05
2022-08-06T08:44:01.000Z,0.68
2022-08-06T08:46:43.811Z,0.88
2022-08-06T08:49:46.870Z,0.63
2022-08-06T08:52:18.046Z,1.58
2022-08-06T08:54:51.789Z,0.60
2022-08-06T08:58:38.020Z,1.45
2022-08-06T09:00:10.629Z,0.75
2022-08-06T09:02:48.307Z,0.80
2022-08-06T09:05:18.073Z,1.05
2022-08-06T09:07:52.516Z,1.50
2022-08-06T09:10:28.558Z,1.25
2022-08-06T09:15:28.266Z,0.70
2022-08-06T09:18:11.463Z,0.88
2022-08-06T09:20:47.417Z,0.88
2022-08-06T09:23:17.228Z,0.70
2022-08-06T09:25:51.902Z,0.60
2022-08-06T09:28:45.120Z,0.80
2022-08-06T09:31:21.944Z,0.80
2022-08-06T09:34:30.277Z,0.80
2022-08-06T09:36:57.430Z,0.60
2022-08-06T09:39:59.507Z,0.60
2022-08-06T09:42:51.534Z,0.63
2022-08-06T09:45:42.287Z,0.80
2022-08-06T09:48:17.583Z,0.60
2022-08-06T09:50:51.037Z,0.60
2022-08-06T09:53:21.823Z,0.73
2022-08-06T09:55:53.381Z,0.70
2022-08-06T09:58:37.408Z,0.50
2022-08-06T10:01:22.743Z,0.63
2022-08-06T10:04:05.167Z,0.45
2022-08-06T10:06:55.852Z,0.60
2022-08-06T10:09:41.555Z,0.50
2022-08-06T10:12:20.118Z,0.55
2022-08-06T10:14:55.964Z,0.40
2022-08-06T10:17:24.525Z,0.65
2022-08-06T10:20:18.414Z,0.50
2022-08-06T10:22:55.266Z,0.50
2022-08-06T10:25:29.598Z,0.75
2022-08-06T10:27:59.391Z,0.60
2022-08-06T10:30:33.424Z,0.40
2022-08-06T10:33:18.373Z,0.50
2022-08-06T10:38:38.805Z,0.60
2022-08-06T10:41:59.079Z,0.30
2022-08-06T10:44:11.280Z,0.40
2022-08-06T10:46:39.220Z,0.50
2022-08-06T10:50:24.072Z,0.43
2022-08-06T10:51:58.758Z,0.93
2022-08-06T10:54:27.267Z,0.32
2022-08-06T10:56:56.291Z,0.50
2022-08-06T10:59:25.850Z,0.43
2022-08-06T11:02:59.371Z,0.50
2022-08-06T11:05:53.302Z,0.55
2022-08-06T11:08:41.878Z,0.47
2022-08-06T11:12:14.668Z,0.55
2022-08-06T11:14:46.016Z,0.47
2022-08-06T11:17:13.546Z,0.50
2022-08-06T11:19:56.910Z,0.60
2022-08-06T11:22:53.376Z,0.80
2022-08-06T11:25:40.435Z,0.50
2022-08-06T11:28:09.329Z,0.70
2022-08-06T11:30:48.270Z,0.80
2022-08-06T11:33:19.391Z,0.70
2022-08-06T11:39:10.196Z,0.75
2022-08-06T11:41:56.503Z,0.80
2022-08-06T11:44:29.142Z,0.47
2022-08-06T11:47:11.920Z,0.60
2022-08-06T11:49:48.663Z,0.60
2022-08-06T11:52:39.477Z,0.60
2022-08-06T11:55:12.671Z,0.50
2022-08-06T11:58:13.672Z,0.47
2022-08-06T12:01:33.122Z,0.63
2022-08-06T12:04:01.037Z,0.50
2022-08-06T12:06:29.659Z,0.98
2022-08-06T12:09:22.637Z,0.60
2022-08-06T12:12:26.658Z,0.85
2022-08-06T12:15:01.092Z,7.80
2022-08-06T12:17:45.323Z,0.70
2022-08-06T12:20:46.177Z,1.05
2022-08-06T12:23:15.993Z,0.73
2022-08-06T12:25:47.892Z,0.60
2022-08-06T12:28:18.472Z,3.60
2022-08-06T12:30:48.694Z,4.28
2022-08-06T12:33:18.161Z,0.95
2022-08-06T12:35:53.712Z,8.57
2022-08-06T12:38:26.607Z,3.30
2022-08-06T12:41:46.745Z,1.85
2022-08-06T12:44:09.119Z,2.58
2022-08-06T12:46:36.795Z,1.10
2022-08-06T12:49:06.486Z,1.80
2022-08-06T12:51:33.914Z,1.52
2022-08-06T12:54:05.031Z,9.02
2022-08-06T12:56:37.409Z,13.25
2022-08-06T12:59:16.079Z,2.17
2022-08-06T13:02:10.256Z,9.43
2022-08-06T13:04:49.526Z,1.45
2022-08-06T13:07:20.333Z,2.70
2022-08-06T13:10:33.834Z,2.45
2022-08-06T13:14:03.467Z,1.98
2022-08-06T13:15:24.939Z,2.53
2022-08-06T13:18:40.563Z,2.10
2022-08-06T13:21:02.658Z,3.42
2022-08-06T13:23:35.610Z,2.10
2022-08-06T13:26:25.703Z,3.15
2022-08-06T13:30:35.453Z,1.90
2022-08-06T13:32:28.165Z,6.15
2022-08-06T13:35:01.721Z,6.00
2022-08-06T13:37:57.295Z,11.70
2022-08-06T13:40:51.422Z,1.70
2022-08-06T13:43:42.818Z,1.85
2022-08-06T13:46:32.849Z,1.73
2022-08-06T13:49:04.610Z,1.95
2022-08-06T13:51:49.279Z,2.53
2022-08-06T13:54:28.217Z,2.40
2022-08-06T13:56:57.079Z,3.30
2022-08-06T13:59:40.328Z,6.90
2022-08-06T14:02:11.774Z,5.03
2022-08-06T14:04:40.527Z,4.13
2022-08-06T14:07:08.675Z,2.58
2022-08-06T14:09:57.577Z,3.72
2022-08-06T14:12:28.936Z,2.30
2022-08-06T14:14:57.510Z,7.20
2022-08-06T14:17:34.698Z,2.40
2022-08-06T14:20:10.143Z,2.53
2022-08-06T14:22:44.984Z,2.03
2022-08-06T14:25:14.057Z,7.88
2022-08-06T14:27:43.505Z,3.85
2022-08-06T14:30:21.889Z,2.55
2022-08-06T14:33:10.595Z,3.47
2022-08-06T14:35:51.675Z,4.40
2022-08-06T14:38:30.399Z,3.13
2022-08-06T14:41:49.945Z,3.90
2022-08-06T14:44:24.902Z,2.88
2022-08-06T14:46:52.179Z,2.22
2022-08-06T14:49:19.394Z,6.03
2022-08-06T14:52:19.919Z,2.67
2022-08-06T14:54:34.738Z,2.20
2022-08-06T14:57:14.964Z,4.13
2022-08-06T14:59:48.964Z,2.45
2022-08-06T15:02:25.006Z,2.30
2022-08-06T15:04:54.112Z,2.13
2022-08-06T15:07:24.682Z,3.45
2022-08-06T15:10:06.066Z,3.35
2022-08-06T15:12:48.696Z,3.00
2022-08-06T15:15:23.892Z,2.67
2022-08-06T15:18:14.225Z,1.92
2022-08-06T15:20:40.972Z,3.60
2022-08-06T15:23:08.126Z,2.38
2022-08-06T15:26:02.415Z,2.55
2022-08-06T15:28:24.482Z,1.80
2022-08-06T15:30:51.508Z,2.30
2022-08-06T15:33:20.996Z,2.40
2022-08-06T15:35:57.168Z,2.90
2022-08-06T15:38:27.514Z,2.13
2022-08-06T15:40:55.630Z,2.10
2022-08-06T15:43:25.538Z,2.08
2022-08-06T15:45:55.167Z,2.65
2022-08-06T15:48:29.940Z,2.65
2022-08-06T15:51:27.615Z,2.92
2022-08-06T15:53:54.363Z,2.47
2022-08-06T15:56:33.962Z,2.22
2022-08-06T15:59:12.441Z,2.72
2022-08-06T16:02:01.111Z,3.45
2022-08-06T16:04:35.364Z,3.25
2022-08-06T16:07:07.690Z,4.05
2022-08-06T16:10:00.453Z,3.78
2022-08-06T16:12:27.204Z,3.65
2022-08-06T16:14:57.634Z,4.03
2022-08-06T16:17:52.584Z,4.50
2022-08-06T16:20:20.565Z,4.47
2022-08-06T16:22:52.434Z,4.38
2022-08-06T16:25:22.814Z,4.72
2022-08-06T16:27:52.125Z,5.00
2022-08-06T16:30:20.753Z,4.60
2022-08-06T16:32:58.744Z,4.40
2022-08-06T16:35:26.123Z,5.28
2022-08-06T16:43:28.851Z,5.55
2022-08-06T16:45:55.899Z,5.45
2022-08-06T16:52:42.265Z,5.90
2022-08-06T16:54:14.757Z,5.40
2022-08-06T16:56:49.563Z,5.57
2022-08-06T16:59:16.723Z,5.63
2022-08-06T17:02:15.743Z,5.93
2022-08-06T17:04:48.927Z,6.45
2022-08-06T17:07:16.415Z,6.10
2022-08-06T17:10:05.284Z,5.95
2022-08-06T17:12:57.697Z,5.70
2022-08-06T17:15:36.301Z,5.95
2022-08-06T17:18:05.434Z,5.88
2022-08-06T17:20:33.164Z,5.97
2022-08-06T17:23:04.664Z,5.90
2022-08-06T17:25:51.391Z,5.72
2022-08-06T17:28:19.419Z,5.80
2022-08-06T17:30:51.969Z,5.82
2022-08-06T17:33:19.523Z,6.10
2022-08-06T17:36:32.362Z,6.10
2022-08-06T17:38:37.740Z,5.03
2022-08-06T17:41:11.549Z,5.82
2022-08-06T17:42:28.681Z,5.50
2022-08-06T17:43:57.357Z,5.35
2022-08-06T17:46:28.525Z,5.47
2022-08-06T17:49:00.749Z,5.03
2022-08-06T17:51:36.045Z,5.10
2022-08-06T17:54:44.366Z,5.63
2022-08-06T17:56:51.946Z,5.25
2022-08-06T17:59:22.335Z,5.32
2022-08-06T18:01:57.064Z,5.60
2022-08-06T18:04:30.614Z,6.13
2022-08-06T18:07:12.126Z,5.35
2022-08-06T18:10:16.710Z,5.38
2022-08-06T18:12:48.522Z,5.07
2022-08-06T18:15:20.893Z,5.13
2022-08-06T18:17:59.854Z,5.57
2022-08-06T18:20:39.478Z,5.10
2022-08-06T18:23:21.640Z,5.13
2022-08-06T18:25:57.868Z,5.22
2022-08-06T18:28:36.528Z,5.30
2022-08-06T18:31:10.696Z,5.63
2022-08-06T18:33:42.505Z,5.13
2022-08-06T18:36:13.357Z,5.65
2022-08-06T18:38:41.329Z,5.55
2022-08-06T18:41:15.530Z,5.35
2022-08-06T18:43:54.183Z,5.78
2022-08-06T18:47:02.343Z,5.45
2022-08-06T18:49:26.865Z,6.47
2022-08-06T18:52:23.309Z,5.65
2022-08-06T18:54:56.319Z,5.13
2022-08-06T18:57:37.969Z,5.10
2022-08-06T19:00:21.088Z,5.93
2022-08-06T19:02:52.660Z,6.00
2022-08-06T19:05:28.146Z,5.22
2022-08-06T19:07:58.602Z,5.82
2022-08-06T19:10:27.673Z,5.85
2022-08-06T19:12:56.521Z,5.97
2022-08-06T19:15:24.680Z,6.13
2022-08-06T19:18:17.298Z,6.32
2022-08-06T19:20:45.784Z,5.20
2022-08-06T19:23:21.629Z,5.82
2022-08-06T19:26:13.418Z,5.70
2022-08-06T19:28:50.002Z,5.63
2022-08-06T19:31:41.328Z,5.28
2022-08-06T19:34:14.784Z,5.75
2022-08-06T19:36:45.575Z,6.03
2022-08-06T19:39:53.197Z,6.40
2022-08-06T19:42:15.505Z,6.13
2022-08-06T19:45:04.774Z,6.53
2022-08-06T19:47:47.159Z,6.75
2022-08-06T19:50:16.371Z,8.73
2022-08-06T19:52:46.973Z,7.32
2022-08-06T19:56:07.467Z,9.55
2022-08-06T19:58:26.722Z,8.10
2022-08-06T20:01:04.913Z,12.13
2022-08-06T20:03:38.698Z,7.60
2022-08-06T20:06:21.497Z,6.78
2022-08-06T20:08:56.362Z,10.93
2022-08-06T20:11:45.042Z,11.35
2022-08-06T20:14:10.877Z,6.68
2022-08-06T20:16:40.325Z,12.50
2022-08-06T20:19:08.180Z,13.40
2022-08-06T20:21:42.831Z,10.10
2022-08-06T20:24:10.677Z,7.38
2022-08-06T20:26:51.304Z,6.97
2022-08-06T20:30:03.177Z,11.52
2022-08-06T20:32:17.602Z,8.30
2022-08-06T20:34:48.321Z,9.55
2022-08-06T20:37:16.180Z,7.83
2022-08-06T20:39:48.246Z,8.07
2022-08-06T20:42:15.496Z,6.05
2022-08-06T20:44:47.284Z,20.15
2022-08-06T20:47:45.772Z,13.13
2022-08-06T20:50:07.261Z,6.35
2022-08-06T20:52:39.116Z,6.78
2022-08-06T20:55:08.599Z,6.60
2022-08-06T20:57:37.387Z,6.18
2022-08-06T21:00:17.678Z,7.60
2022-08-06T21:02:54.409Z,6.40
2022-08-06T21:05:50.859Z,6.55
2022-08-06T21:08:27.330Z,7.03
2022-08-06T21:10:58.132Z,7.03
2022-08-06T21:13:36.781Z,6.22
2022-08-06T21:16:29.117Z,9.30
2022-08-06T21:19:02.464Z,5.55
2022-08-06T21:21:31.875Z,6.20
2022-08-06T21:24:00.402Z,7.78
2022-08-06T21:26:34.539Z,10.50
2022-08-06T21:29:41.813Z,11.05
2022-08-06T21:34:27.078Z,6.53
2022-08-06T21:36:57.367Z,8.48
2022-08-06T21:39:55.809Z,7.77
2022-08-06T21:42:19.172Z,6.75
2022-08-06T21:44:49.804Z,6.13
2022-08-06T21:47:19.368Z,5.68
2022-08-06T21:50:00.100Z,5.90
2022-08-06T21:52:34.186Z,6.97
2022-08-06T21:56:34.870Z,6.95
2022-08-06T21:58:02.789Z,6.93
2022-08-06T22:00:34.199Z,6.00
2022-08-06T22:06:22.533Z,6.38
2022-08-06T22:08:21.842Z,8.80
2022-08-06T22:10:54.738Z,9.77
2022-08-06T22:13:56.997Z,6.30
2022-08-06T22:16:33.004Z,7.15
2022-08-06T22:19:02.488Z,7.13
2022-08-06T22:21:50.261Z,6.75
2022-08-06T22:24:19.725Z,7.05
2022-08-06T22:26:46.969Z,6.95
2022-08-06T22:29:17.231Z,6.85
2022-08-06T22:31:56.530Z,6.53
2022-08-06T22:34:25.894Z,8.48
2022-08-06T22:36:58.843Z,8.35
2022-08-06T22:39:34.626Z,8.48
2022-08-06T22:42:08.031Z,7.57
2022-08-06T22:44:57.357Z,6.93
2022-08-06T22:47:24.463Z,8.00
2022-08-06T22:50:02.255Z,7.25
2022-08-06T22:52:51.471Z,7.22
2022-08-06T22:55:18.858Z,7.45
2022-08-06T22:59:01.902Z,7.20
2022-08-06T23:00:37.847Z,7.25
2022-08-06T23:03:13.462Z,6.97
2022-08-06T23:05:44.839Z,7.45
2022-08-06T23:08:15.641Z,7.82
2022-08-06T23:10:49.099Z,7.03
2022-08-06T23:13:25.613Z,7.00
2022-08-06T23:15:59.689Z,8.27
2022-08-06T23:18:29.548Z,7.70
2022-08-06T23:21:22.296Z,7.68
2022-08-06T23:23:53.937Z,7.20
2022-08-06T23:26:31.858Z,6.85
2022-08-06T23:29:08.818Z,7.22
2022-08-06T23:31:38.198Z,7.50
2022-08-06T23:34:20.981Z,7.10
2022-08-06T23:36:55.085Z,7.68
2022-08-06T23:39:36.558Z,7.40
2022-08-06T23:42:14.759Z,24.13
2022-08-06T23:44:51.691Z,22.35
2022-08-06T23:47:54.204Z,22.10
2022-08-06T23:50:09.684Z,22.25
2022-08-06T23:52:41.416Z,18.80
2022-08-06T23:55:11.664Z,18.15
2022-08-06T23:57:54.652Z,16.90
